NCAR-RAP Real-Time Weather Data

Output produced by METARs form (17 December 2018  15:19 UTC)
found at http://weather.rap.ucar.edu/surface/
 
RJSC 171000Z 11002KT 8000 FEW005 SCT030 BKN060 02/02 Q1005
RJSC 170900Z VRB01KT 9999 FEW005 SCT030 BKN060 02/02 Q1005
RJSC 170800Z VRB01KT 9999 -SHRA FEW005 SCT030 BKN070 03/02 Q1005
RJSC 170700Z 13001KT 9999 -SHRA FEW005 SCT030 BKN050 03/02 Q1005
RJSC 170600Z 26003KT 9999 FEW005 SCT020 BKN040 03/02 Q1005
RJSC 170500Z VRB02KT 9999 FEW005 SCT030 BKN050 03/01 Q1005
RJSC 170400Z VRB01KT 9999 FEW005 SCT030 BKN050 04/00 Q1006
RJSC 170300Z VRB02KT 9999 FEW005 SCT030 BKN040 03/00 Q1006
RJSC 170200Z VRB02KT 9999 FEW030 SCT040 BKN080 02/M00 Q1008
RJSC 170100Z 36003KT 6000 BCFG FEW030 BKN/// M01/M02 Q1009
RJSC 170038Z VRB02KT 2000 BCFG BR FEW030 BKN/// M02/M02 Q1009 RMK 1CU030 A2981
RJSC 170027Z VRB01KT 4000 BCFG BR FEW030 BKN/// M01/M01 Q1009 RMK 1CU030 A2982
RJSC 170010Z 01003KT 340V040 5000 BCFG BR FEW030 BKN/// M02/M02 Q1009 RMK 1CU030 A2982
RJSC 170000Z 03002KT 2400 R01/1500VP2000U BCFG BR FEW030 BKN/// M03/M03 Q1010
RJSC 162337Z 36003KT 1500 R01/P2000N BCFG BR FEW030 SCT100 BKN/// M03/M03 Q1010 RMK 1CU030 3AC100 A2983
RJSC 162300Z 17001KT 9999 FEW030 SCT100 BKN/// M02/M02 Q1010
RJSC 162240Z 21001KT 9999 FEW030 SCT100 BKN/// M03/M03 Q1010 RMK 1CU030 3AC100 A2984
RJSC 161000Z 13004KT CAVOK M01/M01 Q1017
RJSC 160900Z 19003KT 130V240 CAVOK 01/M00 Q1017
RJSC 160800Z 11003KT CAVOK 02/01 Q1018
RJSC 160700Z 21001KT CAVOK 03/M01 Q1019
RJSC 160600Z 25002KT CAVOK 03/M01 Q1019
RJSC 160500Z 22001KT CAVOK 03/M02 Q1020
RJSC 160400Z 00000KT CAVOK 03/M02 Q1021
RJSC 160300Z VRB02KT CAVOK 03/M02 Q1022
RJSC 160200Z VRB02KT CAVOK 02/M02 Q1023
RJSC 160100Z VRB02KT CAVOK 01/M02 Q1025
RJSC 160000Z VRB02KT CAVOK M01/M02 Q1025
RJSC 151000Z VRB02KT 9999 FEW040 BKN060 M00/M01 Q1027
RJSC 150900Z VRB01KT 9999 FEW030 BKN050 M01/M01 Q1027
RJSC 150800Z VRB02KT 9999 FEW005 SCT015 BKN050 00/M01 Q1027
RJSC 150700Z 02004KT 9999 -SHSN FEW005 SCT010 BKN040 00/M01 Q1027
RJSC 150620Z VRB02KT 6000 -SHSN FEW005 SCT010 BKN020 01/M01 Q1027 RMK 1ST005 3ST010 5CU020 A3033
RJSC 150600Z 36003KT 3000 -SHSN FEW005 SCT010 BKN020 01/M01 Q1026
RJSC 150500Z VRB02KT 9999 -SHSN FEW005 SCT020 BKN050 01/M02 Q1026
RJSC 150422Z VRB01KT 7000 -SHSN FEW010 SCT020 BKN030 01/M01 Q1026 RMK 1ST010 3CU020 6CU030 A3031
RJSC 150410Z 22003KT 180V260 4000 -SHSN FEW002 SCT010 BKN020 01/M01 Q1026 RMK 2ST002 3ST010 7CU020 A3030
RJSC 150400Z VRB02KT 2500 -SHSN FEW002 SCT007 BKN020 01/M00 Q1026